createdAt,value
2019-04-21T00:01:00.395Z,25.43
2019-04-21T00:03:34.763Z,34.10
2019-04-21T00:06:24.966Z,28.17
2019-04-21T00:08:50.931Z,25.23
2019-04-21T00:11:22.510Z,22.17
2019-04-21T00:13:46.979Z,25.23
2019-04-21T00:16:10.675Z,23.13
2019-04-21T00:18:58.064Z,22.63
2019-04-21T00:21:34.448Z,25.40
2019-04-21T00:24:24.009Z,24.07
2019-04-21T00:26:59.015Z,24.70
2019-04-21T00:29:34.261Z,23.90
2019-04-21T00:32:00.317Z,27.20
2019-04-21T00:34:17.705Z,20.37
2019-04-21T00:36:59.713Z,22.67
2019-04-21T00:39:49.079Z,22.63
2019-04-21T00:42:11.288Z,20.63
2019-04-21T00:44:29.472Z,16.90
2019-04-21T00:47:13.949Z,19.97
2019-04-21T00:49:53.891Z,22.53
2019-04-21T00:52:47.544Z,22.73
2019-04-21T00:55:20.342Z,23.30
2019-04-21T00:57:49.874Z,25.77
2019-04-21T01:00:18.649Z,18.13
2019-04-21T01:02:53.238Z,19.83
2019-04-21T01:05:39.374Z,18.67
2019-04-21T01:07:48.009Z,22.90
2019-04-21T01:10:09.596Z,23.63
2019-04-21T01:12:53.585Z,22.60
2019-04-21T01:17:56.032Z,21.47
2019-04-21T01:20:15.945Z,18.63
2019-04-21T01:22:32.763Z,18.97
2019-04-21T01:25:13.500Z,23.57
2019-04-21T01:27:49.369Z,24.00
2019-04-21T01:30:29.631Z,17.73
2019-04-21T01:33:06.320Z,17.47
2019-04-21T01:35:25.731Z,19.53
2019-04-21T01:38:04.718Z,17.40
2019-04-21T01:40:34.794Z,20.40
2019-04-21T01:43:03.660Z,21.07
2019-04-21T01:45:31.818Z,20.57
2019-04-21T01:48:02.488Z,27.90
2019-04-21T01:50:34.564Z,17.97
2019-04-21T01:53:17.302Z,16.10
2019-04-21T01:56:11.754Z,15.73
2019-04-21T01:58:36.571Z,15.80
2019-04-21T02:01:21.648Z,16.80
2019-04-21T02:03:52.863Z,17.23
2019-04-21T02:06:21.257Z,21.30
2019-04-21T02:08:51.462Z,18.20
2019-04-21T02:11:24.789Z,17.37
2019-04-21T02:13:58.896Z,19.63
2019-04-21T02:16:24.464Z,16.43
2019-04-21T02:18:53.070Z,21.97
2019-04-21T02:21:20.396Z,23.37
2019-04-21T02:24:01.835Z,22.23
2019-04-21T02:26:29.928Z,15.70
2019-04-21T02:29:00.196Z,19.50
2019-04-21T02:31:41.826Z,24.23
2019-04-21T02:34:16.943Z,24.90
2019-04-21T02:39:23.116Z,23.97
2019-04-21T02:41:41.031Z,30.07
2019-04-21T02:44:08.760Z,20.57
2019-04-21T02:46:37.896Z,19.73
2019-04-21T02:49:18.580Z,18.87
2019-04-21T02:59:17.241Z,30.70
2019-04-21T03:02:03.740Z,23.57
2019-04-21T03:04:47.040Z,22.60
2019-04-21T03:07:52.200Z,20.07
2019-04-21T03:10:02.257Z,20.63
2019-04-21T03:12:22.294Z,26.37
2019-04-21T03:22:32.388Z,27.10
2019-04-21T03:25:23.062Z,25.63
2019-04-21T03:27:47.026Z,23.93
2019-04-21T03:30:11.120Z,18.43
2019-04-21T03:35:33.786Z,20.90
2019-04-21T03:37:33.247Z,24.60
2019-04-21T03:39:59.744Z,17.50
2019-04-21T03:42:34.203Z,18.03
2019-04-21T03:52:42.280Z,18.17
2019-04-21T04:03:35.224Z,18.03
2019-04-21T04:05:55.335Z,24.90
2019-04-21T04:11:04.529Z,21.37
2019-04-21T04:13:37.642Z,19.77
2019-04-21T04:18:39.118Z,20.20
2019-04-21T04:20:51.862Z,21.37
2019-04-21T04:23:38.613Z,19.10
2019-04-21T04:25:59.106Z,18.13
2019-04-21T04:28:40.254Z,20.63
2019-04-21T04:31:08.152Z,18.70
2019-04-21T04:33:37.309Z,22.67
2019-04-21T04:41:24.529Z,27.67
2019-04-21T04:43:57.286Z,20.10
2019-04-21T04:46:22.403Z,27.30
2019-04-21T04:48:53.230Z,15.27
2019-04-21T04:51:22.942Z,17.23
2019-04-21T04:53:59.090Z,19.40
2019-04-21T04:56:25.315Z,20.07
2019-04-21T04:59:19.322Z,24.87
2019-04-21T05:04:03.057Z,18.50
2019-04-21T05:06:46.215Z,22.07
2019-04-21T05:09:09.413Z,20.67
2019-04-21T05:14:13.235Z,25.33
2019-04-21T05:19:32.755Z,15.57
2019-04-21T05:22:05.794Z,17.60
2019-04-21T05:24:30.349Z,19.33
2019-04-21T05:27:25.650Z,16.30
2019-04-21T05:30:17.241Z,19.37
2019-04-21T05:33:05.626Z,22.33
2019-04-21T05:35:55.243Z,19.90
2019-04-21T05:38:57.046Z,16.83
2019-04-21T05:44:59.396Z,11.53
2019-04-21T05:47:47.394Z,16.97
2019-04-21T05:50:55.305Z,21.67
2019-04-21T05:56:55.009Z,20.80
2019-04-21T06:02:36.901Z,18.10
2019-04-21T06:05:34.992Z,13.90
2019-04-21T06:08:32.488Z,13.73
2019-04-21T06:11:13.063Z,17.23
2019-04-21T06:17:19.722Z,16.80
2019-04-21T06:23:17.890Z,12.98
2019-04-21T06:26:06.238Z,11.90
2019-04-21T06:29:22.372Z,18.42
2019-04-21T06:34:17.099Z,12.05
2019-04-21T06:37:32.673Z,12.25
2019-04-21T06:42:10.864Z,14.93
2019-04-21T06:44:54.108Z,10.18
2019-04-21T06:47:42.186Z,10.95
2019-04-21T06:50:27.114Z,6.55
2019-04-21T06:53:20.718Z,6.33
2019-04-21T06:55:35.280Z,7.80
2019-04-21T06:58:05.079Z,7.35
2019-04-21T07:00:39.097Z,7.45
2019-04-21T07:03:19.281Z,6.50
2019-04-21T07:05:52.130Z,8.13
2019-04-21T07:10:43.520Z,8.63
2019-04-21T07:13:15.318Z,6.65
2019-04-21T07:15:53.850Z,11.70
2019-04-21T07:18:30.032Z,8.38
2019-04-21T07:20:53.524Z,10.20
2019-04-21T07:23:30.293Z,10.13
2019-04-21T07:25:58.134Z,7.58
2019-04-21T07:28:52.684Z,10.15
2019-04-21T07:31:17.800Z,7.92
2019-04-21T07:33:53.858Z,4.67
2019-04-21T07:36:22.134Z,4.45
2019-04-21T07:38:45.683Z,5.30
2019-04-21T07:41:11.276Z,10.72
2019-04-21T07:43:38.035Z,5.25
2019-04-21T07:46:30.045Z,9.73
2019-04-21T07:49:40.141Z,7.50
2019-04-21T07:58:02.621Z,7.10
2019-04-21T08:00:47.942Z,7.90
2019-04-21T08:03:15.338Z,8.90
2019-04-21T08:05:53.008Z,6.87
2019-04-21T08:08:21.668Z,6.85
2019-04-21T08:10:47.462Z,5.33
2019-04-21T08:13:38.181Z,17.30
2019-04-21T08:15:57.704Z,9.33
2019-04-21T08:18:34.990Z,5.55
2019-04-21T08:20:59.674Z,10.03
2019-04-21T08:23:40.184Z,10.25
2019-04-21T08:26:09.247Z,5.80
2019-04-21T08:28:40.624Z,8.35
2019-04-21T08:31:11.214Z,8.85
2019-04-21T08:38:54.034Z,5.80
2019-04-21T08:41:18.472Z,6.55
2019-04-21T08:43:51.577Z,4.90
2019-04-21T08:46:25.626Z,8.33
2019-04-21T08:48:59.332Z,6.22
2019-04-21T08:51:27.504Z,5.75
2019-04-21T08:56:49.594Z,5.53
2019-04-21T08:59:51.831Z,5.37
2019-04-21T09:02:40.421Z,3.53
2019-04-21T09:05:11.401Z,3.80
2019-04-21T09:07:47.582Z,4.30
2019-04-21T09:10:16.971Z,4.77
2019-04-21T09:12:46.702Z,3.10
2019-04-21T09:15:44.827Z,4.17
2019-04-21T09:18:13.452Z,7.50
2019-04-21T09:20:57.093Z,4.60
2019-04-21T09:23:31.782Z,2.70
2019-04-21T09:25:57.438Z,3.07
2019-04-21T09:28:20.065Z,11.70
2019-04-21T09:30:45.068Z,6.17
2019-04-21T09:33:09.253Z,8.43
2019-04-21T09:35:47.389Z,2.67
2019-04-21T09:38:19.588Z,3.77
2019-04-21T09:40:43.885Z,2.53
2019-04-21T09:43:11.939Z,2.67
2019-04-21T09:45:40.497Z,2.83
2019-04-21T09:48:15.040Z,3.53
2019-04-21T09:50:39.722Z,2.60
2019-04-21T09:56:16.049Z,2.70
2019-04-21T09:59:20.801Z,2.83
2019-04-21T10:02:10.006Z,2.53
2019-04-21T10:04:33.603Z,4.93
2019-04-21T10:07:04.576Z,2.50
2019-04-21T10:09:33.338Z,5.10
2019-04-21T10:12:25.648Z,5.33
2019-04-21T10:15:23.620Z,5.60
2019-04-21T10:18:08.543Z,2.47
2019-04-21T10:20:44.875Z,3.17
2019-04-21T10:23:13.564Z,2.30
2019-04-21T10:25:42.873Z,3.53
2019-04-21T10:28:11.295Z,2.90
2019-04-21T10:30:40.799Z,2.80
2019-04-21T10:33:26.369Z,4.00
2019-04-21T10:39:04.376Z,4.90
2019-04-21T10:41:21.488Z,2.70
2019-04-21T10:44:03.132Z,1.62
2019-04-21T10:46:40.851Z,3.07
2019-04-21T10:52:49.063Z,2.67
2019-04-21T11:05:09.293Z,2.13
2019-04-21T11:08:37.916Z,2.63
2019-04-21T11:14:13.611Z,1.67
2019-04-21T11:16:56.590Z,2.87
2019-04-21T11:19:35.399Z,4.37
2019-04-21T11:22:12.672Z,2.50
2019-04-21T11:24:44.759Z,1.97
2019-04-21T11:27:22.904Z,2.80
2019-04-21T11:30:02.178Z,3.67
2019-04-21T11:32:37.498Z,7.70
2019-04-21T11:35:43.534Z,2.10
2019-04-21T11:38:26.946Z,3.27
2019-04-21T11:41:27.849Z,3.42
2019-04-21T11:44:35.548Z,5.83
2019-04-21T11:47:34.257Z,4.08
2019-04-21T11:50:17.222Z,2.60
2019-04-21T11:56:27.123Z,1.82
2019-04-21T11:59:05.871Z,2.55
2019-04-21T12:01:45.778Z,2.13
2019-04-21T12:04:23.474Z,3.97
2019-04-21T12:06:59.739Z,1.47
2019-04-21T12:09:37.758Z,2.83
2019-04-21T12:12:07.502Z,1.22
2019-04-21T12:14:43.835Z,1.80
2019-04-21T12:17:27.945Z,5.72
2019-04-21T12:20:03.784Z,3.13
2019-04-21T12:22:47.422Z,3.50
2019-04-21T12:25:18.821Z,2.40
2019-04-21T12:27:54.042Z,2.30
2019-04-21T12:30:24.019Z,2.85
2019-04-21T12:33:00.089Z,4.28
2019-04-21T12:35:28.095Z,2.83
2019-04-21T12:38:02.646Z,2.50
2019-04-21T12:41:00.414Z,2.08
2019-04-21T12:43:39.044Z,6.78
2019-04-21T12:49:17.891Z,2.27
2019-04-21T12:52:06.016Z,2.90
2019-04-21T12:54:57.778Z,2.37
2019-04-21T12:58:01.436Z,2.65
2019-04-21T13:03:46.211Z,1.57
2019-04-21T13:06:34.931Z,4.90
2019-04-21T13:09:30.360Z,2.87
2019-04-21T13:12:17.335Z,4.92
2019-04-21T13:15:03.947Z,1.60
2019-04-21T13:24:07.583Z,1.70
2019-04-21T13:27:00.236Z,2.58
2019-04-21T13:29:32.296Z,2.00
2019-04-21T13:32:03.750Z,1.57
2019-04-21T13:34:44.418Z,26.17
2019-04-21T13:37:13.204Z,2.95
2019-04-21T13:40:29.643Z,2.43
2019-04-21T13:42:57.310Z,1.72
2019-04-21T13:45:47.901Z,2.47
2019-04-21T13:51:17.895Z,5.03
2019-04-21T13:54:22.233Z,1.37
2019-04-21T13:57:05.934Z,2.95
2019-04-21T13:59:49.336Z,5.25
2019-04-21T14:02:48.974Z,2.17
2019-04-21T14:05:26.563Z,1.90
2019-04-21T14:11:27.702Z,1.92
2019-04-21T14:14:08.307Z,2.50
2019-04-21T14:17:26.573Z,1.50
2019-04-21T14:20:11.605Z,2.13
2019-04-21T14:23:08.569Z,1.85
2019-04-21T14:28:30.311Z,1.07
2019-04-21T14:31:06.212Z,1.45
2019-04-21T14:33:38.305Z,1.42
2019-04-21T14:36:34.967Z,1.77
2019-04-21T14:39:08.553Z,1.65
2019-04-21T14:41:42.251Z,1.55
2019-04-21T14:44:22.681Z,1.10
2019-04-21T14:47:05.031Z,1.30
2019-04-21T14:50:05.368Z,1.40
2019-04-21T14:55:45.772Z,0.83
2019-04-21T14:58:35.230Z,2.13
2019-04-21T15:01:08.321Z,1.25
2019-04-21T15:03:50.176Z,0.70
2019-04-21T15:06:25.436Z,1.07
2019-04-21T15:09:03.004Z,1.85
2019-04-21T15:11:29.951Z,1.17
2019-04-21T15:14:15.790Z,1.97
2019-04-21T15:16:45.039Z,2.77
2019-04-21T15:19:22.450Z,4.60
2019-04-21T15:21:52.415Z,1.00
2019-04-21T15:24:42.468Z,1.70
2019-04-21T15:30:34.416Z,1.33
2019-04-21T15:33:39.151Z,1.50
2019-04-21T15:36:31.724Z,0.97
2019-04-21T15:39:13.937Z,0.83
2019-04-21T15:42:10.410Z,1.10
2019-04-21T15:45:12.601Z,0.70
2019-04-21T15:47:47.606Z,1.23
2019-04-21T15:50:26.478Z,1.30
2019-04-21T15:53:05.720Z,3.00
2019-04-21T15:58:58.998Z,1.63
2019-04-21T16:01:54.574Z,5.40
2019-04-21T16:04:20.764Z,1.50
2019-04-21T16:06:49.938Z,1.93
2019-04-21T16:09:23.315Z,1.17
2019-04-21T16:11:55.688Z,1.50
2019-04-21T16:14:44.732Z,3.43
2019-04-21T16:17:15.104Z,4.77
2019-04-21T16:20:17.833Z,1.93
2019-04-21T16:22:54.713Z,1.37
2019-04-21T16:25:32.793Z,3.63
2019-04-21T16:28:01.514Z,2.93
2019-04-21T16:31:10.262Z,9.00
2019-04-21T16:33:41.059Z,3.53
2019-04-21T16:36:13.129Z,0.63
2019-04-21T16:38:47.399Z,1.50
2019-04-21T16:41:28.710Z,0.87
2019-04-21T16:43:58.874Z,1.00
2019-04-21T16:46:41.304Z,1.63
2019-04-21T16:49:18.336Z,1.43
2019-04-21T16:52:29.726Z,0.50
2019-04-21T16:55:21.281Z,1.43
2019-04-21T16:58:04.622Z,0.73
2019-04-21T17:00:37.797Z,1.10
2019-04-21T17:03:14.630Z,1.47
2019-04-21T17:06:04.395Z,2.87
2019-04-21T17:08:40.951Z,2.93
2019-04-21T17:11:46.526Z,1.53
2019-04-21T17:14:27.233Z,2.50
2019-04-21T17:17:03.773Z,1.70
2019-04-21T17:19:26.936Z,1.27
2019-04-21T17:22:15.692Z,2.73
2019-04-21T17:25:06.760Z,1.63
2019-04-21T17:30:54.590Z,1.37
2019-04-21T17:36:21.229Z,1.10
2019-04-21T17:39:16.499Z,1.03
2019-04-21T17:42:34.430Z,1.43
2019-04-21T17:45:48.945Z,1.13
2019-04-21T17:48:29.505Z,1.00
2019-04-21T18:14:09.486Z,3.80
2019-04-21T18:16:49.953Z,2.97
2019-04-21T18:19:26.759Z,1.67
2019-04-21T18:22:03.344Z,1.67
2019-04-21T18:24:42.782Z,2.90
2019-04-21T18:31:12.337Z,4.70
2019-04-21T18:38:08.031Z,4.13
2019-04-21T18:44:17.721Z,5.10
2019-04-21T18:47:06.885Z,4.17
2019-04-21T18:49:40.907Z,2.10
2019-04-21T18:56:13.867Z,4.20
2019-04-21T18:59:04.426Z,6.27
2019-04-21T19:01:40.660Z,2.93
2019-04-21T19:04:40.537Z,1.83
2019-04-21T19:07:45.231Z,4.07
2019-04-21T19:10:31.893Z,4.03
2019-04-21T19:13:31.609Z,3.13
2019-04-21T19:15:34.262Z,2.57
2019-04-21T19:19:41.185Z,2.77
2019-04-21T19:21:24.278Z,5.97
2019-04-21T19:24:22.891Z,4.83
2019-04-21T19:27:21.203Z,3.87
2019-04-21T19:30:01.397Z,3.67
2019-04-21T19:32:25.205Z,3.70
2019-04-21T19:38:04.692Z,4.20
2019-04-21T19:40:40.881Z,4.60
2019-04-21T19:43:44.220Z,4.67
2019-04-21T19:46:13.977Z,5.07
2019-04-21T19:49:43.807Z,4.07
2019-04-21T19:52:41.025Z,5.27
2019-04-21T19:55:12.057Z,5.83
2019-04-21T19:57:41.052Z,5.47
2019-04-21T20:00:22.399Z,5.57
2019-04-21T20:56:21.181Z,6.40
2019-04-21T20:59:01.508Z,2.77
2019-04-21T21:01:38.681Z,2.97
2019-04-21T21:04:13.860Z,3.90
2019-04-21T21:07:01.899Z,4.00
2019-04-21T21:09:44.069Z,5.53
2019-04-21T21:12:22.690Z,3.57
2019-04-21T21:14:49.968Z,6.87
2019-04-21T21:17:42.363Z,6.23
2019-04-21T21:20:21.361Z,6.53
2019-04-21T21:22:43.880Z,5.50
2019-04-21T21:25:49.106Z,4.43
2019-04-21T21:28:07.510Z,6.27
2019-04-21T21:31:11.522Z,7.30
2019-04-21T21:33:57.429Z,5.63
2019-04-21T21:36:41.565Z,6.70
2019-04-21T21:39:25.284Z,6.47
2019-04-21T21:41:48.556Z,6.37
2019-04-21T21:44:30.013Z,4.23
2019-04-21T21:47:37.316Z,6.73
2019-04-21T21:50:10.022Z,5.00
2019-04-21T21:52:42.429Z,4.47
2019-04-21T21:54:58.944Z,4.50
2019-04-21T21:57:44.536Z,5.93
2019-04-21T22:00:22.120Z,5.37
2019-04-21T22:02:54.655Z,6.80
2019-04-21T22:05:30.049Z,5.57
2019-04-21T22:08:40.488Z,6.33
2019-04-21T22:10:36.892Z,7.90
2019-04-21T22:13:09.623Z,6.17
2019-04-21T22:15:43.733Z,5.33
2019-04-21T22:18:34.672Z,3.90
2019-04-21T22:21:02.233Z,11.70
2019-04-21T22:23:29.561Z,6.30
2019-04-21T22:25:47.408Z,3.60
2019-04-21T22:28:17.717Z,4.67
2019-04-21T22:30:50.644Z,4.80
2019-04-21T22:33:19.530Z,3.43
2019-04-21T22:35:54.254Z,2.87
2019-04-21T22:38:35.221Z,4.40
2019-04-21T22:41:23.255Z,2.50
2019-04-21T22:43:46.154Z,3.33
2019-04-21T22:46:15.381Z,3.77
2019-04-21T22:48:45.360Z,6.43
2019-04-21T22:51:20.497Z,3.67
2019-04-21T22:53:50.790Z,2.70
2019-04-21T22:56:33.565Z,4.97
2019-04-21T22:59:09.651Z,3.33
2019-04-21T23:01:47.437Z,3.70
2019-04-21T23:04:14.064Z,3.23
2019-04-21T23:06:44.313Z,3.10
2019-04-21T23:09:16.884Z,3.60
2019-04-21T23:11:50.727Z,4.80
2019-04-21T23:14:23.660Z,4.67
2019-04-21T23:17:24.316Z,4.27
2019-04-21T23:19:47.378Z,4.67
2019-04-21T23:22:21.418Z,4.13
2019-04-21T23:25:09.087Z,3.27
2019-04-21T23:28:05.124Z,3.50
2019-04-21T23:30:47.483Z,7.23
2019-04-21T23:33:03.581Z,2.67
2019-04-21T23:36:21.037Z,3.10
2019-04-21T23:38:58.496Z,4.13
2019-04-21T23:41:38.825Z,4.13
2019-04-21T23:44:32.944Z,2.60
2019-04-21T23:47:08.622Z,3.53
2019-04-21T23:49:48.261Z,3.97
2019-04-21T23:52:17.791Z,1.73
2019-04-21T23:54:47.364Z,2.63
2019-04-21T23:58:05.812Z,3.53
